createdAt,value
2022-08-04T00:00:21.681Z,25.50
2022-08-04T00:03:03.270Z,25.50
2022-08-04T00:05:40.741Z,25.50
2022-08-04T00:08:21.618Z,25.50
2022-08-04T00:10:53.035Z,25.40
2022-08-04T00:13:24.722Z,25.40
2022-08-04T00:15:54.522Z,25.40
2022-08-04T00:18:26.454Z,25.30
2022-08-04T00:20:58.765Z,25.30
2022-08-04T00:24:10.347Z,25.30
2022-08-04T00:26:19.339Z,25.30
2022-08-04T00:28:49.152Z,25.30
2022-08-04T00:31:17.829Z,25.30
2022-08-04T00:34:01.728Z,25.30
2022-08-04T00:36:30.999Z,25.20
2022-08-04T00:39:01.572Z,25.20
2022-08-04T00:41:56.348Z,25.10
2022-08-04T00:44:36.127Z,25.10
2022-08-04T00:47:20.299Z,25.10
2022-08-04T00:50:09.147Z,25.00
2022-08-04T00:53:07.924Z,25.00
2022-08-04T00:56:13.205Z,24.90
2022-08-04T00:58:46.687Z,24.90
2022-08-04T01:01:27.866Z,24.90
2022-08-04T01:04:04.462Z,24.80
2022-08-04T01:06:43.265Z,24.80
2022-08-04T01:09:42.006Z,24.80
2022-08-04T01:12:27.971Z,24.80
2022-08-04T01:15:06.717Z,24.80
2022-08-04T01:17:51.098Z,24.90
2022-08-04T01:20:25.589Z,24.90
2022-08-04T01:23:21.641Z,24.80
2022-08-04T01:26:43.994Z,24.80
2022-08-04T01:29:34.382Z,24.90
2022-08-04T01:32:25.604Z,24.90
2022-08-04T01:35:01.013Z,24.90
2022-08-04T01:37:45.308Z,24.80
2022-08-04T01:40:15.811Z,24.80
2022-08-04T01:42:45.541Z,24.80
2022-08-04T01:45:16.741Z,24.80
2022-08-04T01:47:50.801Z,24.70
2022-08-04T01:50:19.088Z,24.60
2022-08-04T01:52:51.188Z,24.60
2022-08-04T01:55:19.960Z,24.60
2022-08-04T01:57:50.127Z,24.50
2022-08-04T02:00:22.378Z,24.50
2022-08-04T02:02:51.738Z,24.40
2022-08-04T02:05:22.632Z,24.40
2022-08-04T02:08:20.257Z,24.30
2022-08-04T02:11:02.105Z,24.30
2022-08-04T02:13:39.984Z,24.20
2022-08-04T02:16:17.379Z,24.20
2022-08-04T02:19:03.593Z,24.20
2022-08-04T02:21:42.051Z,24.10
2022-08-04T02:24:16.150Z,24.00
2022-08-04T02:26:50.604Z,23.90
2022-08-04T02:29:22.266Z,23.80
2022-08-04T02:31:57.818Z,23.70
2022-08-04T02:34:29.870Z,23.60
2022-08-04T02:37:00.589Z,23.50
2022-08-04T02:39:48.588Z,23.40
2022-08-04T02:42:18.569Z,23.40
2022-08-04T02:44:51.743Z,23.40
2022-08-04T02:47:23.406Z,23.40
2022-08-04T02:50:28.261Z,23.40
2022-08-04T02:52:59.354Z,23.40
2022-08-04T02:55:30.158Z,23.40
2022-08-04T02:58:01.679Z,23.30
2022-08-04T03:00:31.190Z,23.30
2022-08-04T03:03:16.752Z,23.30
2022-08-04T03:06:14.933Z,23.30
2022-08-04T03:09:12.664Z,23.30
2022-08-04T03:12:19.199Z,23.30
2022-08-04T03:15:19.755Z,23.40
2022-08-04T03:18:31.779Z,23.30
2022-08-04T03:21:23.408Z,23.10
2022-08-04T03:24:36.921Z,23.10
2022-08-04T03:27:43.577Z,23.00
2022-08-04T03:30:15.926Z,23.00
2022-08-04T03:33:23.647Z,22.90
2022-08-04T03:36:31.643Z,22.80
2022-08-04T03:39:31.767Z,22.70
2022-08-04T03:42:35.465Z,22.70
2022-08-04T03:45:38.507Z,22.60
2022-08-04T03:48:45.066Z,22.60
2022-08-04T03:51:53.051Z,22.50
2022-08-04T03:54:44.344Z,22.50
2022-08-04T03:57:39.299Z,22.50
2022-08-04T04:00:10.141Z,22.40
2022-08-04T04:03:08.066Z,22.50
2022-08-04T04:06:15.137Z,22.50
2022-08-04T04:09:20.770Z,22.50
2022-08-04T04:12:13.910Z,22.50
2022-08-04T04:14:53.338Z,22.50
2022-08-04T04:17:53.504Z,22.50
2022-08-04T04:20:33.673Z,22.40
2022-08-04T04:23:15.743Z,22.40
2022-08-04T04:25:56.624Z,22.30
2022-08-04T04:28:47.185Z,22.30
2022-08-04T04:31:35.845Z,22.30
2022-08-04T04:34:14.918Z,22.40
2022-08-04T04:36:54.169Z,22.40
2022-08-04T04:39:30.479Z,22.40
2022-08-04T04:42:26.251Z,22.40
2022-08-04T04:45:12.449Z,22.40
2022-08-04T04:48:09.091Z,22.40
2022-08-04T04:50:48.270Z,22.40
2022-08-04T04:53:25.335Z,22.40
2022-08-04T04:56:04.471Z,22.50
2022-08-04T04:58:36.285Z,22.60
2022-08-04T05:01:30.059Z,22.60
2022-08-04T05:04:23.499Z,22.70
2022-08-04T05:07:11.187Z,22.70
2022-08-04T05:09:54.350Z,22.70
2022-08-04T05:14:35.950Z,22.70
2022-08-04T05:15:38.593Z,22.70
2022-08-04T05:18:09.451Z,22.80
2022-08-04T05:20:43.058Z,22.80
2022-08-04T05:23:16.610Z,22.80
2022-08-04T05:25:59.711Z,22.90
2022-08-04T05:28:34.247Z,22.90
2022-08-04T05:31:12.011Z,23.00
2022-08-04T05:33:44.225Z,23.00
2022-08-04T05:36:32.666Z,23.10
2022-08-04T05:39:08.445Z,23.10
2022-08-04T05:41:45.731Z,23.10
2022-08-04T05:44:16.692Z,23.10
2022-08-04T05:46:54.071Z,23.10
2022-08-04T05:49:24.770Z,23.20
2022-08-04T05:51:55.727Z,23.20
2022-08-04T05:54:25.455Z,23.20
2022-08-04T05:56:56.006Z,23.30
2022-08-04T05:59:26.771Z,23.40
2022-08-04T06:01:58.846Z,23.50
2022-08-04T06:04:34.127Z,23.60
2022-08-04T06:07:02.574Z,23.70
2022-08-04T06:09:31.864Z,23.70
2022-08-04T06:12:04.697Z,23.80
2022-08-04T06:14:39.163Z,23.90
2022-08-04T06:18:32.145Z,24.00
2022-08-04T06:20:19.956Z,24.00
2022-08-04T06:22:54.545Z,24.10
2022-08-04T06:25:25.771Z,24.20
2022-08-04T06:27:55.790Z,24.30
2022-08-04T06:30:26.891Z,24.40
2022-08-04T06:33:03.444Z,24.40
2022-08-04T06:35:34.095Z,24.50
2022-08-04T06:38:03.860Z,24.70
2022-08-04T06:40:34.522Z,24.80
2022-08-04T06:43:04.572Z,24.90
2022-08-04T06:45:35.252Z,25.00
2022-08-04T06:48:06.511Z,25.10
2022-08-04T06:51:32.428Z,25.20
2022-08-04T06:53:26.108Z,25.30
2022-08-04T06:55:56.389Z,25.40
2022-08-04T06:58:25.937Z,25.50
2022-08-04T07:00:55.747Z,25.70
2022-08-04T07:03:25.462Z,25.80
2022-08-04T07:05:53.941Z,26.00
2022-08-04T07:08:23.318Z,26.10
2022-08-04T07:10:53.200Z,26.20
2022-08-04T07:13:23.233Z,26.30
2022-08-04T07:15:51.760Z,26.50
2022-08-04T07:18:21.710Z,26.60
2022-08-04T07:20:51.541Z,26.70
2022-08-04T07:23:25.700Z,26.90
2022-08-04T07:26:00.614Z,27.00
2022-08-04T07:28:41.610Z,27.10
2022-08-04T07:31:33.061Z,27.20
2022-08-04T07:34:17.302Z,27.30
2022-08-04T07:36:55.747Z,27.40
2022-08-04T07:39:28.592Z,27.50
2022-08-04T07:42:01.507Z,27.50
2022-08-04T07:44:32.338Z,27.70
2022-08-04T07:47:01.278Z,27.70
2022-08-04T07:49:54.953Z,27.80
2022-08-04T07:52:19.881Z,27.90
2022-08-04T07:54:49.140Z,28.00
2022-08-04T07:57:39.565Z,28.00
2022-08-04T08:00:10.109Z,28.10
2022-08-04T08:02:41.638Z,28.20
2022-08-04T08:05:11.182Z,28.20
2022-08-04T08:07:50.891Z,28.30
2022-08-04T08:10:22.956Z,28.40
2022-08-04T08:12:52.614Z,28.50
2022-08-04T08:15:22.018Z,28.50
2022-08-04T08:17:59.554Z,28.60
2022-08-04T08:20:31.090Z,28.60
2022-08-04T08:23:02.376Z,28.60
2022-08-04T08:25:31.835Z,28.70
2022-08-04T08:28:00.585Z,28.90
2022-08-04T08:30:31.721Z,29.00
2022-08-04T08:33:06.489Z,29.00
2022-08-04T08:35:52.086Z,29.10
2022-08-04T08:38:38.309Z,29.10
2022-08-04T08:41:39.301Z,29.20
2022-08-04T08:44:29.983Z,29.20
2022-08-04T08:47:18.090Z,29.20
2022-08-04T08:50:12.765Z,29.40
2022-08-04T08:53:11.919Z,29.40
2022-08-04T08:55:59.205Z,29.50
2022-08-04T08:58:45.868Z,29.60
2022-08-04T09:01:27.123Z,29.70
2022-08-04T09:04:32.629Z,29.70
2022-08-04T09:07:51.879Z,29.70
2022-08-04T09:10:27.142Z,29.70
2022-08-04T09:13:05.487Z,29.70
2022-08-04T09:15:37.122Z,29.60
2022-08-04T09:18:14.601Z,29.80
2022-08-04T09:20:49.143Z,30.00
2022-08-04T09:23:27.542Z,30.20
2022-08-04T09:26:02.278Z,30.30
2022-08-04T09:28:53.644Z,30.30
2022-08-04T09:31:25.559Z,30.50
2022-08-04T09:34:04.763Z,30.60
2022-08-04T09:36:38.381Z,30.70
2022-08-04T09:39:18.727Z,30.90
2022-08-04T09:41:56.569Z,30.90
2022-08-04T09:44:50.012Z,30.90
2022-08-04T09:47:39.689Z,30.80
2022-08-04T09:50:23.981Z,30.90
2022-08-04T09:52:59.110Z,31.00
2022-08-04T09:55:53.241Z,31.10
2022-08-04T09:58:40.080Z,31.20
2022-08-04T10:01:11.515Z,31.30
2022-08-04T10:03:44.903Z,31.40
2022-08-04T10:06:28.953Z,31.50
2022-08-04T10:09:06.045Z,31.60
2022-08-04T10:11:54.718Z,31.70
2022-08-04T10:14:39.926Z,31.80
2022-08-04T10:17:23.467Z,31.80
2022-08-04T10:20:03.798Z,31.80
2022-08-04T10:22:55.417Z,31.80
2022-08-04T10:26:05.202Z,32.00
2022-08-04T10:28:33.262Z,32.00
2022-08-04T10:31:08.121Z,32.00
2022-08-04T10:33:43.693Z,32.10
2022-08-04T10:36:17.558Z,32.30
2022-08-04T10:38:57.498Z,32.40
2022-08-04T10:41:33.949Z,32.40
2022-08-04T10:44:11.850Z,32.50
2022-08-04T10:46:46.827Z,32.60
2022-08-04T10:49:24.309Z,32.70
2022-08-04T10:51:57.310Z,32.70
2022-08-04T10:54:32.627Z,32.90
2022-08-04T10:57:06.402Z,33.10
2022-08-04T10:59:40.445Z,33.10
2022-08-04T11:02:22.013Z,33.00
2022-08-04T11:04:59.212Z,33.10
2022-08-04T11:07:31.310Z,33.00
2022-08-04T11:09:59.582Z,33.10
2022-08-04T11:12:29.661Z,33.10
2022-08-04T11:15:02.283Z,33.30
2022-08-04T11:17:36.094Z,33.50
2022-08-04T11:23:08.062Z,33.80
2022-08-04T11:25:48.471Z,34.20
2022-08-04T11:28:32.243Z,34.30
2022-08-04T11:31:05.406Z,34.70
2022-08-04T11:33:42.490Z,35.10
2022-08-04T11:36:21.619Z,35.90
2022-08-04T11:39:01.484Z,36.80
2022-08-04T11:41:40.168Z,37.20
2022-08-04T11:44:13.124Z,37.80
2022-08-04T11:46:45.162Z,37.60
2022-08-04T11:49:22.181Z,37.20
2022-08-04T11:51:53.818Z,36.60
2022-08-04T11:54:22.875Z,36.40
2022-08-04T11:56:51.737Z,36.60
2022-08-04T11:59:23.442Z,37.50
2022-08-04T12:02:03.523Z,37.80
2022-08-04T12:04:44.351Z,37.70
2022-08-04T12:07:40.460Z,37.50
2022-08-04T12:10:41.109Z,37.10
2022-08-04T12:13:21.217Z,36.40
2022-08-04T12:15:58.346Z,36.30
2022-08-04T12:18:43.213Z,36.00
2022-08-04T12:21:19.979Z,35.60
2022-08-04T12:23:57.870Z,35.70
2022-08-04T12:26:35.799Z,35.50
2022-08-04T12:29:11.320Z,35.60
2022-08-04T12:31:46.662Z,36.10
2022-08-04T12:34:19.656Z,35.90
2022-08-04T12:36:55.837Z,35.70
2022-08-04T12:39:27.896Z,35.80
2022-08-04T12:42:05.801Z,35.80
2022-08-04T12:44:38.833Z,35.80
2022-08-04T12:47:27.433Z,36.00
2022-08-04T12:50:02.971Z,35.90
2022-08-04T12:55:30.493Z,36.10
2022-08-04T12:58:00.135Z,36.70
2022-08-04T13:00:34.176Z,37.10
2022-08-04T13:03:10.892Z,37.30
2022-08-04T13:05:41.731Z,36.90
2022-08-04T13:08:11.370Z,37.20
2022-08-04T13:10:43.304Z,37.50
2022-08-04T13:13:19.439Z,37.50
2022-08-04T13:16:01.578Z,37.40
2022-08-04T13:18:32.686Z,36.50
2022-08-04T13:21:19.807Z,36.40
2022-08-04T13:24:09.950Z,36.40
2022-08-04T13:26:54.525Z,36.20
2022-08-04T13:29:58.719Z,35.90
2022-08-04T13:32:25.306Z,35.50
2022-08-04T13:34:56.510Z,35.70
2022-08-04T13:37:27.661Z,36.10
2022-08-04T13:39:59.486Z,36.60
2022-08-04T13:42:29.846Z,36.80
2022-08-04T13:45:02.003Z,37.00
2022-08-04T13:47:33.428Z,37.10
2022-08-04T13:50:17.733Z,37.10
2022-08-04T13:52:48.597Z,36.80
2022-08-04T13:55:29.868Z,37.10
2022-08-04T13:58:03.640Z,37.00
2022-08-04T14:00:43.167Z,37.20
2022-08-04T14:03:23.170Z,37.00
2022-08-04T14:06:16.294Z,36.70
2022-08-04T14:08:53.743Z,36.50
2022-08-04T14:12:06.542Z,36.10
2022-08-04T14:14:22.330Z,35.90
2022-08-04T14:16:58.612Z,35.60
2022-08-04T14:19:31.092Z,35.80
2022-08-04T14:22:04.981Z,35.90
2022-08-04T14:24:33.128Z,35.80
2022-08-04T14:27:02.528Z,35.70
2022-08-04T14:29:42.188Z,35.40
2022-08-04T14:32:14.462Z,35.20
2022-08-04T14:34:45.232Z,35.20
2022-08-04T14:37:19.454Z,35.10
2022-08-04T14:40:17.436Z,35.20
2022-08-04T14:42:43.515Z,35.30
2022-08-04T14:45:13.267Z,35.40
2022-08-04T14:47:51.776Z,35.30
2022-08-04T14:50:33.598Z,35.20
2022-08-04T14:53:05.787Z,35.10
2022-08-04T14:55:34.223Z,35.10
2022-08-04T14:58:33.866Z,35.00
2022-08-04T15:00:53.617Z,35.10
2022-08-04T15:03:22.773Z,35.40
2022-08-04T15:06:00.116Z,35.80
2022-08-04T15:08:33.040Z,35.90
2022-08-04T15:11:02.908Z,35.80
2022-08-04T15:13:32.080Z,35.80
2022-08-04T15:16:07.336Z,35.70
2022-08-04T15:18:39.110Z,35.70
2022-08-04T15:21:08.771Z,35.80
2022-08-04T15:23:39.300Z,35.80
2022-08-04T15:26:13.445Z,35.70
2022-08-04T15:28:45.799Z,35.40
2022-08-04T15:32:06.355Z,35.50
2022-08-04T15:34:07.942Z,36.30
2022-08-04T15:36:45.669Z,36.70
2022-08-04T15:39:36.895Z,36.70
2022-08-04T15:42:20.522Z,36.80
2022-08-04T15:45:18.743Z,36.90
2022-08-04T15:48:14.798Z,36.80
2022-08-04T15:51:15.116Z,36.70
2022-08-04T15:54:30.649Z,36.50
2022-08-04T15:57:03.077Z,36.10
2022-08-04T16:00:14.278Z,35.60
2022-08-04T16:02:44.254Z,35.20
2022-08-04T16:05:47.260Z,34.90
2022-08-04T16:08:17.469Z,34.70
2022-08-04T16:10:50.967Z,34.60
2022-08-04T16:13:21.664Z,34.80
2022-08-04T16:15:52.518Z,34.90
2022-08-04T16:18:36.957Z,35.20
2022-08-04T16:21:08.595Z,35.20
2022-08-04T16:23:55.909Z,35.40
2022-08-04T16:26:54.884Z,35.50
2022-08-04T16:29:39.227Z,35.80
2022-08-04T16:32:26.493Z,35.90
2022-08-04T16:34:59.662Z,35.90
2022-08-04T16:37:34.937Z,36.10
2022-08-04T16:40:43.596Z,36.20
2022-08-04T16:43:14.153Z,36.30
2022-08-04T16:45:48.278Z,36.00
2022-08-04T16:48:17.768Z,35.90
2022-08-04T16:50:56.104Z,35.80
2022-08-04T16:54:03.130Z,35.80
2022-08-04T16:56:18.748Z,35.90
2022-08-04T16:58:54.065Z,36.00
2022-08-04T17:01:33.173Z,36.20
2022-08-04T17:04:07.912Z,36.50
2022-08-04T17:06:38.297Z,36.90
2022-08-04T17:09:12.307Z,37.20
2022-08-04T17:11:40.979Z,37.20
2022-08-04T17:14:09.370Z,37.10
2022-08-04T17:16:39.346Z,36.90
2022-08-04T17:19:25.034Z,36.60
2022-08-04T17:22:02.884Z,36.40
2022-08-04T17:24:36.380Z,36.20
2022-08-04T17:28:09.473Z,36.00
2022-08-04T17:29:55.017Z,35.90
2022-08-04T17:32:24.232Z,35.70
2022-08-04T17:34:55.402Z,35.60
2022-08-04T17:37:41.069Z,35.50
2022-08-04T17:40:18.318Z,35.30
2022-08-04T17:42:51.603Z,35.20
2022-08-04T17:48:10.036Z,34.80
2022-08-04T17:50:43.838Z,34.70
2022-08-04T17:53:13.416Z,34.50
2022-08-04T17:55:49.530Z,34.30
2022-08-04T17:58:21.003Z,34.10
2022-08-04T18:01:23.706Z,34.00
2022-08-04T18:03:52.776Z,33.90
2022-08-04T18:06:23.216Z,33.80
2022-08-04T18:08:58.123Z,33.70
2022-08-04T18:11:41.397Z,33.50
2022-08-04T18:14:11.303Z,33.50
2022-08-04T18:16:45.993Z,33.40
2022-08-04T18:19:18.801Z,33.30
2022-08-04T18:22:00.062Z,33.20
2022-08-04T18:24:35.171Z,33.10
2022-08-04T18:27:21.955Z,33.00
2022-08-04T18:30:33.455Z,32.90
2022-08-04T18:33:04.217Z,32.90
2022-08-04T18:36:31.353Z,32.80
2022-08-04T18:38:23.280Z,32.70
2022-08-04T18:40:54.574Z,32.60
2022-08-04T18:43:28.411Z,32.50
2022-08-04T18:46:14.377Z,32.40
2022-08-04T18:48:42.854Z,32.30
2022-08-04T18:51:23.748Z,32.30
2022-08-04T18:57:21.952Z,32.20
2022-08-04T18:59:31.689Z,32.00
2022-08-04T19:02:12.316Z,32.00
2022-08-04T19:04:49.649Z,31.90
2022-08-04T19:07:28.977Z,31.80
2022-08-04T19:12:47.050Z,31.70
2022-08-04T19:15:19.192Z,31.70
2022-08-04T19:17:53.856Z,31.60
2022-08-04T19:20:26.668Z,31.50
2022-08-04T19:24:27.515Z,31.50
2022-08-04T19:26:03.844Z,31.40
2022-08-04T19:28:37.621Z,31.30
2022-08-04T19:31:10.178Z,31.20
2022-08-04T19:33:55.327Z,31.10
2022-08-04T19:36:28.794Z,31.00
2022-08-04T19:38:58.438Z,30.90
2022-08-04T19:41:27.046Z,30.90
2022-08-04T19:43:55.546Z,30.80
2022-08-04T19:46:27.841Z,30.70
2022-08-04T19:48:59.522Z,30.70
2022-08-04T19:51:30.487Z,30.60
2022-08-04T19:54:04.054Z,30.60
2022-08-04T19:56:40.436Z,30.50
2022-08-04T19:59:10.171Z,30.40
2022-08-04T20:01:45.119Z,30.40
2022-08-04T20:04:14.262Z,30.30
2022-08-04T20:06:42.811Z,30.30
2022-08-04T20:09:25.859Z,30.20
2022-08-04T20:11:56.192Z,30.20
2022-08-04T20:14:32.127Z,30.10
2022-08-04T20:17:10.267Z,30.10
2022-08-04T20:19:39.205Z,30.10
2022-08-04T20:22:08.644Z,30.10
2022-08-04T20:25:01.015Z,30.10
2022-08-04T20:27:59.374Z,30.10
2022-08-04T20:30:29.110Z,30.00
2022-08-04T20:33:00.718Z,30.00
2022-08-04T20:35:29.705Z,29.90
2022-08-04T20:38:01.331Z,29.90
2022-08-04T20:40:30.313Z,29.90
2022-08-04T20:42:59.661Z,29.80
2022-08-04T20:45:55.677Z,29.80
2022-08-04T20:48:17.730Z,29.70
2022-08-04T20:50:49.853Z,29.70
2022-08-04T20:53:18.081Z,29.70
2022-08-04T20:55:55.014Z,29.70
2022-08-04T20:58:27.280Z,29.60
2022-08-04T21:00:57.049Z,29.60
2022-08-04T21:03:49.785Z,29.60
2022-08-04T21:06:16.399Z,29.50
2022-08-04T21:08:57.133Z,29.50
2022-08-04T21:11:32.509Z,29.50
2022-08-04T21:14:02.517Z,29.40
2022-08-04T21:16:55.677Z,29.30
2022-08-04T21:19:24.470Z,29.30
2022-08-04T21:21:55.424Z,29.30
2022-08-04T21:27:13.188Z,29.30
2022-08-04T21:29:42.169Z,29.20
2022-08-04T21:32:14.426Z,29.20
2022-08-04T21:34:44.335Z,29.20
2022-08-04T21:37:22.527Z,29.20
2022-08-04T21:40:15.261Z,29.10
2022-08-04T21:42:50.078Z,29.20
2022-08-04T21:45:21.914Z,29.10
2022-08-04T21:47:51.092Z,29.10
2022-08-04T21:50:20.894Z,29.00
2022-08-04T21:52:49.914Z,29.00
2022-08-04T21:55:19.084Z,29.00
2022-08-04T21:57:49.497Z,28.90
2022-08-04T22:00:19.663Z,28.90
2022-08-04T22:02:52.907Z,28.80
2022-08-04T22:05:24.111Z,28.80
2022-08-04T22:07:52.791Z,28.80
2022-08-04T22:10:22.515Z,28.80
2022-08-04T22:13:07.000Z,28.70
2022-08-04T22:16:05.073Z,28.70
2022-08-04T22:18:27.882Z,28.60
2022-08-04T22:20:57.594Z,28.50
2022-08-04T22:23:26.489Z,28.50
2022-08-04T22:25:55.557Z,28.40
2022-08-04T22:28:27.924Z,28.40
2022-08-04T22:30:57.392Z,28.40
2022-08-04T22:33:55.323Z,28.30
2022-08-04T22:36:16.865Z,28.30
2022-08-04T22:38:49.799Z,28.30
2022-08-04T22:41:22.046Z,28.30
2022-08-04T22:44:02.289Z,28.30
2022-08-04T22:46:31.107Z,28.40
2022-08-04T22:48:59.473Z,28.40
2022-08-04T22:51:29.712Z,28.40
2022-08-04T22:53:58.339Z,28.30
2022-08-04T22:56:38.266Z,28.30
2022-08-04T22:59:10.983Z,28.30
2022-08-04T23:01:59.734Z,28.30
2022-08-04T23:04:30.688Z,28.30
2022-08-04T23:07:00.849Z,28.20
2022-08-04T23:09:50.943Z,28.20
2022-08-04T23:12:26.071Z,28.20
2022-08-04T23:14:55.733Z,28.10
2022-08-04T23:17:24.406Z,28.00
2022-08-04T23:19:58.274Z,28.00
2022-08-04T23:22:42.399Z,28.00
2022-08-04T23:25:15.180Z,28.00
2022-08-04T23:27:51.234Z,27.90
2022-08-04T23:30:21.580Z,27.90
2022-08-04T23:32:50.389Z,27.90
2022-08-04T23:35:19.423Z,27.90
2022-08-04T23:37:57.116Z,27.70
2022-08-04T23:40:33.096Z,27.70
2022-08-04T23:43:17.191Z,27.60
2022-08-04T23:46:06.328Z,27.50
2022-08-04T23:48:35.145Z,27.50
2022-08-04T23:51:14.200Z,27.40
2022-08-04T23:54:02.253Z,27.40
2022-08-04T23:56:33.090Z,27.20
2022-08-04T23:59:04.084Z,27.10
